createdAt,value
2022-08-01T00:03:32.369Z,17170.47656
2022-08-01T00:18:34.569Z,16849.63281
2022-08-01T00:33:36.809Z,8682.16992
2022-08-01T00:48:38.979Z,8843.07617
2022-08-01T01:03:58.773Z,7833.04834
2022-08-01T01:19:01.653Z,4980.34912
2022-08-01T01:34:03.964Z,3208.43823
2022-08-01T01:49:06.245Z,2044.28894
2022-08-01T02:04:08.545Z,1329.90259
2022-08-01T02:19:10.931Z,979.00989
2022-08-01T02:34:13.146Z,673.67511
2022-08-01T02:49:15.486Z,510.82993
2022-08-01T03:04:17.826Z,249.1144
2022-08-01T03:19:20.021Z,108.56348
2022-08-01T03:34:22.217Z,31.01814
2022-08-01T03:49:24.570Z,5.8159
2022-08-01T04:04:26.886Z,0
2022-08-01T04:19:29.090Z,0
2022-08-01T04:34:31.334Z,0
2022-08-01T04:49:33.607Z,0
2022-08-01T05:04:51.550Z,0
2022-08-01T05:19:53.968Z,0
2022-08-01T05:34:56.201Z,0
2022-08-01T05:49:58.433Z,0
2022-08-01T06:05:00.626Z,0
2022-08-01T06:20:02.824Z,0
2022-08-01T06:35:05.063Z,0
2022-08-01T06:50:07.278Z,0
2022-08-01T07:05:12.089Z,0
2022-08-01T07:20:16.529Z,0
2022-08-01T07:35:18.998Z,0
2022-08-01T07:50:21.195Z,0
2022-08-01T08:05:58.816Z,0
2022-08-01T08:21:06.472Z,0
2022-08-01T08:36:09.268Z,0
2022-08-01T08:51:11.476Z,0
2022-08-01T09:06:13.670Z,0
2022-08-01T09:21:15.928Z,0
2022-08-01T09:36:18.355Z,0
2022-08-01T09:51:58.397Z,0
2022-08-01T10:07:02.315Z,0
2022-08-01T10:22:04.903Z,0
2022-08-01T10:37:08.693Z,0
2022-08-01T10:52:11.182Z,0
2022-08-01T11:07:13.631Z,0
2022-08-01T11:22:16.338Z,0
2022-08-01T11:37:18.526Z,0
2022-08-01T11:52:20.797Z,0.96932
2022-08-01T12:07:23.206Z,5.8159
2022-08-01T12:22:26.629Z,43.61925
2022-08-01T12:37:28.904Z,117.28732
2022-08-01T12:52:31.085Z,236.51328
2022-08-01T13:07:39.705Z,380.94147
2022-08-01T13:22:47.422Z,674.64441
2022-08-01T13:37:49.766Z,1063.34045
2022-08-01T13:52:52.118Z,1183.53577
2022-08-01T14:07:56.352Z,1416.17175
2022-08-01T14:22:59.019Z,1773.84961
2022-08-01T14:38:01.262Z,2173.20801
2022-08-01T14:53:03.653Z,2898.25708
2022-08-01T15:08:05.885Z,2355.4397
2022-08-01T15:23:08.043Z,2157.69897
2022-08-01T15:38:10.221Z,3229.76343
2022-08-01T15:53:12.562Z,5077.28076
2022-08-01T16:08:14.788Z,5261.45117
2022-08-01T16:23:17.041Z,2637.51074
2022-08-01T16:38:21.005Z,2567.71997
2022-08-01T16:53:24.475Z,5131.5625
2022-08-01T17:08:26.936Z,2337.99194
2022-08-01T17:23:29.133Z,6278.26416
2022-08-01T17:38:31.362Z,6191.99512
2022-08-01T17:53:33.617Z,2567.71997
2022-08-01T18:08:35.904Z,5155.79541
2022-08-01T18:23:38.110Z,6480.85156
2022-08-01T18:38:40.525Z,6008.79443
2022-08-01T18:53:47.099Z,5915.73975
2022-08-01T19:08:49.321Z,5989.4082
2022-08-01T19:23:51.530Z,5840.1333
2022-08-01T19:38:53.745Z,5772.28125
2022-08-01T19:53:55.988Z,5775.18896
2022-08-01T20:08:58.196Z,6027.21143
2022-08-01T20:24:02.996Z,6186.1792
2022-08-01T20:39:05.584Z,6356.7793
2022-08-01T20:54:11.236Z,6523.50146
2022-08-01T21:09:13.482Z,4661.44434
2022-08-01T21:24:15.742Z,4293.10352
2022-08-01T21:39:17.989Z,3829.77026
2022-08-01T21:54:20.422Z,3600.04224
2022-08-01T22:09:22.789Z,5063.71045
2022-08-01T22:24:25.009Z,3730.90015
2022-08-01T22:39:27.248Z,2937.99902
2022-08-01T22:54:29.461Z,2850.7605
2022-08-01T23:09:52.729Z,2647.20386
2022-08-01T23:25:04.736Z,2669.49829
2022-08-01T23:40:07.989Z,4861.12354
2022-08-01T23:55:15.431Z,13173.01465
